Time;durP1;ratioP1;P1;durP2;ratioP2;P2;SDS_P1;SDS_P2;PMS_P1;PMS_P2;Temp;Humidity;BMP_temperature;BMP_pressure;BME280_temperature;BME280_humidity;BME280_pressure;Samples;Min_cycle;Max_cycle;Signal;HPM_P1;HPM_P2
2021/06/08 00:02:26;;;;;;;9.93;5.47;;;;;;;15.40;73.11;99110.63;1696897;84;21035;-76
2021/06/08 00:04:52;;;;;;;7.40;5.50;;;;;;;15.39;73.34;99108.13;1698459;84;21029;-75
2021/06/08 00:07:20;;;;;;;6.25;5.50;;;;;;;15.34;73.66;99101.91;1697364;84;21005;-75
2021/06/08 00:10:51;;;;;;;6.60;5.40;;;;;;;15.33;73.91;99096.75;1791422;79;23454;-76
2021/06/08 00:13:17;;;;;;;6.78;5.50;;;;;;;15.38;73.75;99110.44;1732734;81;21017;-76
2021/06/08 00:15:43;;;;;;;6.92;5.53;;;;;;;15.43;73.60;99105.48;1703249;83;21044;-76
2021/06/08 00:18:11;;;;;;;7.45;6.45;;;;;;;15.41;73.71;99107.48;1716782;83;21017;-75
2021/06/08 00:20:37;;;;;;;7.08;5.70;;;;;;;15.39;73.76;99100.13;1720016;83;22252;-76
2021/06/08 00:23:04;;;;;;;8.15;5.62;;;;;;;15.40;73.77;99104.47;1711645;82;21107;-76
2021/06/08 00:25:30;;;;;;;8.15;5.58;;;;;;;15.51;73.46;99093.56;1732217;81;21005;-75
2021/06/08 00:27:57;;;;;;;6.58;5.53;;;;;;;15.52;73.53;99089.89;1716556;83;21014;-75
2021/06/08 00:30:25;;;;;;;7.67;6.25;;;;;;;15.43;73.80;99086.83;1705090;83;21021;-76
2021/06/08 00:32:52;;;;;;;6.12;5.47;;;;;;;15.34;74.03;99089.10;1715100;83;22316;-76
2021/06/08 00:35:19;;;;;;;7.97;5.37;;;;;;;15.32;74.12;99085.75;1717103;83;21032;-76
2021/06/08 00:37:47;;;;;;;7.67;5.87;;;;;;;15.36;74.05;99087.13;1719966;83;20997;-76
2021/06/08 00:40:14;;;;;;;6.53;5.87;;;;;;;15.29;74.20;99091.39;1699088;83;21037;-76
2021/06/08 00:42:40;;;;;;;6.50;5.78;;;;;;;15.19;74.41;99091.00;1702704;83;21049;-76
2021/06/08 00:45:09;;;;;;;6.53;5.53;;;;;;;15.08;74.69;99088.06;1704801;83;21527;-76
2021/06/08 00:47:35;;;;;;;7.20;5.40;;;;;;;15.06;74.81;99089.20;1706735;83;21021;-75
2021/06/08 00:50:01;;;;;;;7.28;6.12;;;;;;;15.10;74.73;99085.23;1710109;83;21000;-76
2021/06/08 00:52:27;;;;;;;6.72;6.03;;;;;;;15.10;74.79;99088.41;1704132;83;20970;-76
2021/06/08 00:54:54;;;;;;;7.47;5.80;;;;;;;15.03;74.99;99090.34;1705077;83;21020;-76
2021/06/08 00:57:20;;;;;;;6.45;5.65;;;;;;;14.95;75.22;99081.44;1706300;83;21016;-76
2021/06/08 00:59:46;;;;;;;6.45;5.08;;;;;;;14.99;75.18;99079.66;1709606;83;20973;-76
2021/06/08 01:02:15;;;;;;;6.62;5.42;;;;;;;15.03;75.05;99076.20;1706526;83;21026;-76
2021/06/08 01:04:42;;;;;;;10.13;5.90;;;;;;;15.01;75.23;99083.50;1709901;83;20997;-76
2021/06/08 01:07:08;;;;;;;6.83;5.30;;;;;;;14.98;75.37;99097.12;1708387;83;21040;-76
2021/06/08 01:09:34;;;;;;;6.70;6.00;;;;;;;15.05;75.10;99088.85;1704502;83;21110;-76
2021/06/08 01:12:00;;;;;;;8.98;5.83;;;;;;;15.07;74.93;99097.54;1753492;81;20989;-76
2021/06/08 01:14:27;;;;;;;7.03;5.80;;;;;;;14.97;75.11;99099.45;1752628;81;20966;-76
2021/06/08 01:16:53;;;;;;;7.28;5.90;;;;;;;14.85;75.35;99102.33;1750823;81;20939;-76
2021/06/08 01:19:19;;;;;;;6.90;6.20;;;;;;;14.82;75.40;99098.66;1690245;84;21076;-76
2021/06/08 01:21:46;;;;;;;7.17;5.72;;;;;;;14.91;75.21;99101.73;1719653;82;21620;-77
2021/06/08 01:24:12;;;;;;;6.45;5.83;;;;;;;14.87;75.34;99104.36;1716815;82;21537;-76
2021/06/08 01:26:38;;;;;;;8.00;6.22;;;;;;;14.79;75.65;99105.59;1753670;81;20966;-76
2021/06/08 01:29:05;;;;;;;8.48;6.05;;;;;;;14.74;75.82;99098.55;1755627;81;20985;-76
2021/06/08 01:31:34;;;;;;;7.35;5.87;;;;;;;14.84;75.64;99098.50;1754633;81;21033;-76
2021/06/08 01:34:01;;;;;;;6.85;6.05;;;;;;;14.89;75.48;99102.87;1750845;81;21005;-76
2021/06/08 01:36:31;;;;;;;8.00;6.62;;;;;;;14.80;75.58;99099.28;1749018;81;20949;-76
2021/06/08 01:38:58;;;;;;;6.40;5.75;;;;;;;14.69;75.84;99098.17;1750955;81;22247;-76
2021/06/08 01:41:25;;;;;;;8.10;5.83;;;;;;;14.65;75.97;99108.27;1736842;81;21596;-76
2021/06/08 01:43:53;;;;;;;7.08;6.22;;;;;;;14.70;75.84;99115.81;1754554;81;21033;-76
2021/06/08 01:46:20;;;;;;;6.42;5.67;;;;;;;14.69;75.88;99122.13;1754682;81;21524;-76
2021/06/08 01:48:50;;;;;;;7.70;6.83;;;;;;;14.64;76.09;99119.05;1748540;81;21474;-76
2021/06/08 01:51:25;;;;;;;8.25;6.00;;;;;;;14.60;76.21;99125.15;1753509;81;21045;-76
2021/06/08 01:54:22;;;;;;;7.00;6.30;;;;;;;14.63;76.18;99125.34;1749803;81;20957;-76
2021/06/08 01:57:14;;;;;;;8.70;7.00;;;;;;;14.68;76.13;99127.95;1748939;80;21642;-76
2021/06/08 01:59:51;;;;;;;7.30;6.58;;;;;;;14.61;76.35;99122.02;1751616;81;21567;-76
2021/06/08 02:02:57;;;;;;;8.38;6.47;;;;;;;14.52;76.54;99129.06;1753623;81;21054;-76
2021/06/08 02:05:46;;;;;;;7.40;6.70;;;;;;;14.58;76.51;99126.64;1750742;81;20961;-76
2021/06/08 02:08:27;;;;;;;7.10;6.40;;;;;;;14.61;76.46;99126.00;1749493;81;21006;-76
2021/06/08 02:11:09;;;;;;;6.87;6.17;;;;;;;14.47;76.84;99119.36;1754560;81;21585;-76
2021/06/08 02:14:13;;;;;;;8.35;6.30;;;;;;;14.37;77.04;99122.06;1759550;80;21076;-76
2021/06/08 02:16:53;;;;;;;7.80;6.85;;;;;;;14.40;77.00;99117.80;1758901;80;20973;-76
2021/06/08 02:19:23;;;;;;;9.50;7.25;;;;;;;14.37;77.21;99127.38;1757986;80;22161;-76
2021/06/08 02:21:54;;;;;;;7.30;6.60;;;;;;;14.28;77.51;99126.44;1757758;81;21065;-76
2021/06/08 02:24:22;;;;;;;6.42;5.83;;;;;;;14.29;77.66;99136.60;1756285;81;21060;-76
2021/06/08 02:26:48;;;;;;;7.62;6.62;;;;;;;14.38;77.58;99126.40;1757035;80;21061;-76
2021/06/08 02:29:15;;;;;;;10.78;6.78;;;;;;;14.39;77.64;99126.75;1758825;81;21025;-75
2021/06/08 02:31:45;;;;;;;7.58;6.78;;;;;;;14.33;78.02;99126.01;1759960;81;21042;-75
2021/06/08 02:34:12;;;;;;;8.15;7.08;;;;;;;14.28;78.27;99126.94;1758268;81;21001;-78
2021/06/08 02:36:39;;;;;;;8.35;6.92;;;;;;;14.35;78.30;99124.87;1746024;81;21036;-77
2021/06/08 02:39:05;;;;;;;7.42;6.72;;;;;;;14.47;78.15;99124.17;1758483;81;20973;-77
2021/06/08 02:41:32;;;;;;;8.10;7.30;;;;;;;14.48;78.31;99126.36;1759021;80;21073;-77
2021/06/08 02:43:58;;;;;;;8.63;7.72;;;;;;;14.46;78.57;99134.47;1757021;80;20986;-75
2021/06/08 02:46:24;;;;;;;8.40;7.50;;;;;;;14.49;78.63;99132.86;1761817;81;21056;-75
2021/06/08 02:48:51;;;;;;;9.40;7.28;;;;;;;14.64;78.49;99132.34;1761982;81;21064;-76
2021/06/08 02:51:21;;;;;;;8.55;7.10;;;;;;;14.71;78.43;99130.80;1758310;81;21132;-76
2021/06/08 02:53:47;;;;;;;8.38;7.53;;;;;;;14.73;78.54;99124.82;1760263;81;21492;-76
2021/06/08 02:56:13;;;;;;;9.05;7.70;;;;;;;14.74;78.64;99142.47;1758487;81;21013;-76
2021/06/08 02:58:40;;;;;;;10.30;7.42;;;;;;;14.86;78.44;99135.09;1759305;81;21016;-76
2021/06/08 03:01:06;;;;;;;8.73;6.83;;;;;;;14.97;78.20;99136.72;1758550;80;21126;-76
2021/06/08 03:03:35;;;;;;;8.60;7.72;;;;;;;15.02;78.14;99141.92;1761291;81;20985;-76
2021/06/08 03:06:08;;;;;;;8.88;7.58;;;;;;;14.99;78.25;99140.08;1760270;81;21627;-75
2021/06/08 03:09:06;;;;;;;8.80;6.97;;;;;;;15.01;78.29;99145.59;1760623;81;21076;-76
2021/06/08 03:11:51;;;;;;;8.68;7.78;;;;;;;15.13;78.01;99142.20;1755000;80;21045;-75
2021/06/08 03:14:19;;;;;;;8.90;8.00;;;;;;;15.20;77.93;99147.25;1760023;80;20965;-76
2021/06/08 03:16:51;;;;;;;11.70;8.08;;;;;;;15.15;78.08;99140.20;1756095;80;21038;-76
2021/06/08 03:19:20;;;;;;;8.95;7.95;;;;;;;15.19;78.08;99139.41;1758560;81;20975;-75
2021/06/08 03:21:50;;;;;;;12.00;8.25;;;;;;;15.33;77.83;99138.89;1758793;81;21044;-76
2021/06/08 03:24:17;;;;;;;8.98;8.08;;;;;;;15.43;77.66;99146.78;1758473;81;21021;-76
2021/06/08 03:26:45;;;;;;;10.15;7.42;;;;;;;15.43;77.70;99147.29;1730959;81;21049;-76
2021/06/08 03:29:12;;;;;;;8.23;7.42;;;;;;;15.46;77.77;99151.81;1757067;81;21031;-76
2021/06/08 03:31:44;;;;;;;8.33;7.53;;;;;;;15.67;77.60;99143.98;1758047;81;21004;-76
2021/06/08 03:34:15;;;;;;;9.13;8.20;;;;;;;16.30;76.84;99156.20;1759125;81;21526;-76
2021/06/08 03:36:39;;;;;;;9.45;8.55;;;;;;;16.99;75.28;99151.29;1756346;81;21009;-76
2021/06/08 03:39:05;;;;;;;9.33;8.00;;;;;;;17.56;73.42;99151.84;1754562;80;20982;-76
2021/06/08 03:41:31;;;;;;;8.95;7.83;;;;;;;18.04;71.86;99147.94;1758357;80;21540;-77
2021/06/08 03:43:57;;;;;;;8.13;7.30;;;;;;;18.56;69.76;99145.77;1709530;84;21534;-77
2021/06/08 03:46:25;;;;;;;8.90;8.00;;;;;;;19.02;67.76;99147.73;1725401;82;21539;-77
2021/06/08 03:48:52;;;;;;;9.80;8.80;;;;;;;19.33;66.53;99142.30;1724485;82;21114;-78
2021/06/08 03:51:20;;;;;;;9.13;8.05;;;;;;;19.61;65.56;99140.39;1701536;83;21020;-77
2021/06/08 03:53:47;;;;;;;9.13;8.23;;;;;;;19.86;64.39;99141.52;1694407;84;21013;-77
2021/06/08 03:56:13;;;;;;;8.55;7.62;;;;;;;20.03;63.62;99140.34;1699549;83;21008;-78
2021/06/08 03:58:40;;;;;;;9.88;8.85;;;;;;;20.19;62.92;99142.52;1724809;82;21015;-78
2021/06/08 04:01:06;;;;;;;8.43;7.62;;;;;;;20.40;62.21;99142.60;1724916;82;20972;-78
2021/06/08 04:03:36;;;;;;;8.23;7.37;;;;;;;20.67;61.72;99140.25;1701687;83;21539;-78
2021/06/08 04:06:02;;;;;;;9.08;7.72;;;;;;;21.04;60.76;99147.82;1704555;83;21004;-78
2021/06/08 04:08:29;;;;;;;11.48;7.17;;;;;;;21.35;59.79;99143.16;1702940;83;21057;-78
2021/06/08 04:10:56;;;;;;;8.83;7.40;;;;;;;21.59;59.19;99148.67;1699867;83;21028;-78
2021/06/08 04:13:23;;;;;;;9.50;8.28;;;;;;;21.86;58.02;99147.00;1699904;83;21057;-78
2021/06/08 04:15:50;;;;;;;8.50;7.17;;;;;;;22.04;57.81;99155.11;1704296;83;21084;-78
2021/06/08 04:18:16;;;;;;;8.93;8.03;;;;;;;22.25;57.22;99148.80;1698685;83;21069;-78
2021/06/08 04:20:43;;;;;;;11.05;7.75;;;;;;;22.43;56.60;99156.41;1700787;83;21102;-78
2021/06/08 04:23:10;;;;;;;9.70;8.08;;;;;;;22.64;56.24;99159.48;1737354;81;21020;-78
2021/06/08 04:25:37;;;;;;;9.28;7.97;;;;;;;22.84;55.60;99156.02;1754896;81;21042;-78
2021/06/08 04:28:04;;;;;;;8.43;7.62;;;;;;;22.93;54.93;99153.48;1752457;81;20989;-78
2021/06/08 04:30:30;;;;;;;8.28;7.47;;;;;;;23.13;54.37;99159.43;1752648;81;21093;-78
2021/06/08 04:32:56;;;;;;;10.50;7.85;;;;;;;23.38;54.67;99151.09;1742398;81;21007;-78
2021/06/08 04:35:22;;;;;;;7.60;6.78;;;;;;;23.77;53.35;99153.99;1690138;85;21093;-78
2021/06/08 04:37:49;;;;;;;9.28;7.10;;;;;;;24.00;52.65;99148.20;1713548;83;21056;-78
2021/06/08 04:40:16;;;;;;;9.18;8.25;;;;;;;24.10;52.42;99153.69;1702354;83;21062;-79
2021/06/08 04:42:45;;;;;;;10.50;7.12;;;;;;;24.31;52.12;99152.58;1752794;81;21612;-78
2021/06/08 04:45:13;;;;;;;7.37;6.53;;;;;;;24.63;51.65;99156.73;1773266;81;21096;-78
2021/06/08 04:47:41;;;;;;;8.35;7.22;;;;;;;24.95;50.92;99147.34;1755349;81;21476;-78
2021/06/08 04:50:10;;;;;;;8.68;7.78;;;;;;;25.22;50.29;99148.03;1743083;82;20989;-78
2021/06/08 04:52:37;;;;;;;8.35;7.55;;;;;;;25.46;49.47;99145.08;1756204;81;21036;-79
2021/06/08 04:55:09;;;;;;;9.48;7.78;;;;;;;25.55;48.75;99146.99;1773736;81;21017;-78
2021/06/08 04:57:35;;;;;;;7.92;6.58;;;;;;;25.48;48.95;99146.20;1770516;81;21017;-78
2021/06/08 05:00:09;;;;;;;8.00;7.20;;;;;;;25.58;48.76;99143.02;1754108;82;21067;-77
2021/06/08 05:02:43;;;;;;;8.43;7.25;;;;;;;25.79;48.32;99145.83;1754457;81;21552;-76
2021/06/08 05:05:27;;;;;;;7.60;6.80;;;;;;;25.96;47.90;99150.98;1760456;81;20984;-79
2021/06/08 05:08:18;;;;;;;7.95;7.12;;;;;;;26.12;46.92;99148.78;1750134;81;21060;-78
2021/06/08 05:10:51;;;;;;;9.35;7.90;;;;;;;26.18;47.64;99143.82;1760803;81;21046;-78
2021/06/08 05:13:18;;;;;;;9.93;7.22;;;;;;;26.37;46.54;99143.80;1757204;81;21590;-80
2021/06/08 05:15:44;;;;;;;8.40;6.65;;;;;;;26.29;46.29;99141.72;1750956;81;21550;-79
2021/06/08 05:18:12;;;;;;;10.72;7.83;;;;;;;26.24;46.30;99144.28;1773414;81;21040;-79
2021/06/08 05:20:39;;;;;;;8.38;7.30;;;;;;;26.26;46.19;99143.50;1758365;81;21020;-78
2021/06/08 05:23:07;;;;;;;9.75;6.70;;;;;;;26.31;46.33;99154.50;1750852;81;21057;-78
2021/06/08 05:25:34;;;;;;;8.28;7.40;;;;;;;26.52;46.21;99149.66;1742771;82;21009;-78
2021/06/08 05:28:00;;;;;;;7.33;6.60;;;;;;;26.49;45.75;99145.53;1740390;81;21013;-78
2021/06/08 05:30:27;;;;;;;10.53;7.08;;;;;;;26.38;46.01;99145.47;1742000;81;21033;-78
2021/06/08 05:32:54;;;;;;;9.25;6.15;;;;;;;26.31;46.04;99144.20;1743244;82;21603;-79
2021/06/08 05:35:28;;;;;;;11.18;6.17;;;;;;;26.32;45.80;99144.50;1748011;81;21019;-80
2021/06/08 05:38:06;;;;;;;8.48;5.70;;;;;;;26.38;45.24;99150.89;1773839;81;21029;-79
2021/06/08 05:40:35;;;;;;;11.63;7.65;;;;;;;26.37;45.00;99152.78;1754914;80;21084;-80
2021/06/08 05:43:04;;;;;;;9.00;6.05;;;;;;;26.36;45.32;99148.41;1743190;82;20969;-79
2021/06/08 05:45:34;;;;;;;9.38;6.78;;;;;;;26.28;45.92;99155.47;1743660;82;21524;-80
2021/06/08 05:48:01;;;;;;;9.90;6.60;;;;;;;26.20;46.00;99152.53;1743207;82;20981;-81
2021/06/08 05:50:28;;;;;;;9.78;6.17;;;;;;;26.30;46.21;99155.55;1740889;81;20994;-79
2021/06/08 05:52:55;;;;;;;9.65;6.05;;;;;;;26.59;46.70;99153.67;1742271;81;21063;-78
2021/06/08 05:55:26;;;;;;;7.40;5.60;;;;;;;26.89;45.86;99154.25;1757419;81;20986;-78
2021/06/08 05:57:53;;;;;;;9.58;5.70;;;;;;;27.01;44.93;99151.57;1764002;81;21592;-78
2021/06/08 06:00:20;;;;;;;9.03;5.22;;;;;;;26.99;45.25;99151.81;1745971;81;20992;-78
2021/06/08 06:02:46;;;;;;;6.47;4.53;;;;;;;27.02;43.40;99146.45;1743124;82;21044;-78
2021/06/08 06:05:13;;;;;;;6.37;5.10;;;;;;;26.91;42.68;99147.53;1729097;81;20991;-78
2021/06/08 06:07:40;;;;;;;6.42;4.72;;;;;;;26.76;43.53;99151.19;1690154;85;21033;-78
2021/06/08 06:10:10;;;;;;;4.70;4.12;;;;;;;26.52;43.79;99148.31;1685671;84;21044;-78
2021/06/08 06:12:40;;;;;;;6.83;4.92;;;;;;;26.36;43.56;99147.56;1751903;80;20991;-76
2021/06/08 06:15:09;;;;;;;6.05;4.90;;;;;;;26.13;44.03;99143.67;1745145;80;21017;-79
2021/06/08 06:17:43;;;;;;;5.17;4.30;;;;;;;26.05;44.59;99148.01;1761485;80;21504;-79
2021/06/08 06:20:12;;;;;;;6.12;4.55;;;;;;;25.93;44.43;99143.30;1774951;80;21028;-79
2021/06/08 06:22:40;;;;;;;6.55;4.97;;;;;;;25.82;45.83;99146.76;1751399;82;21020;-80
2021/06/08 06:25:10;;;;;;;5.33;4.70;;;;;;;26.04;45.78;99139.54;1767277;80;21024;-80
2021/06/08 06:27:38;;;;;;;5.55;5.05;;;;;;;26.06;45.36;99133.41;1757647;81;21057;-80
2021/06/08 06:30:07;;;;;;;8.03;5.12;;;;;;;25.95;45.51;99133.08;1755708;80;20988;-79
2021/06/08 06:32:34;;;;;;;6.42;5.50;;;;;;;25.97;45.51;99133.69;1755464;80;20980;-80
2021/06/08 06:35:01;;;;;;;6.25;5.10;;;;;;;25.98;45.49;99131.26;1773928;80;21004;-80
2021/06/08 06:37:27;;;;;;;6.25;5.53;;;;;;;26.05;45.45;99130.40;1760220;80;21025;-80
2021/06/08 06:39:54;;;;;;;6.67;5.05;;;;;;;25.94;45.63;99130.05;1763281;80;21069;-80
2021/06/08 06:42:22;;;;;;;6.10;5.50;;;;;;;25.95;46.36;99125.48;1727062;82;21037;-76
2021/06/08 06:44:49;;;;;;;6.95;5.17;;;;;;;25.94;45.42;99126.53;1751690;82;21090;-76
2021/06/08 06:47:17;;;;;;;5.42;4.90;;;;;;;25.85;45.38;99125.45;1752223;82;21513;-77
2021/06/08 06:49:43;;;;;;;6.60;4.87;;;;;;;25.87;45.84;99136.09;1763647;81;21017;-76
2021/06/08 06:52:10;;;;;;;6.92;5.05;;;;;;;25.97;45.98;99126.92;1767500;81;20958;-76
2021/06/08 06:54:36;;;;;;;13.55;6.80;;;;;;;25.97;45.67;99125.56;1743748;81;21027;-77
2021/06/08 06:57:04;;;;;;;11.33;5.78;;;;;;;26.01;45.69;99126.77;1767269;81;21523;-77
2021/06/08 06:59:32;;;;;;;6.30;5.58;;;;;;;26.14;45.43;99127.72;1776225;80;21118;-77
2021/06/08 07:01:59;;;;;;;6.35;5.33;;;;;;;26.24;45.44;99130.73;1782345;80;20973;-78
2021/06/08 07:04:25;;;;;;;7.22;4.70;;;;;;;26.26;45.33;99133.20;1782385;80;21005;-78
2021/06/08 07:06:55;;;;;;;7.70;4.35;;;;;;;26.34;45.61;99132.89;1752201;80;21026;-76
2021/06/08 07:09:24;;;;;;;7.20;5.00;;;;;;;26.39;44.68;99124.09;1751645;82;21011;-77
2021/06/08 07:11:52;;;;;;;6.25;4.75;;;;;;;26.49;44.45;99130.62;1747940;82;21023;-77
2021/06/08 07:14:20;;;;;;;6.20;5.25;;;;;;;26.43;43.97;99133.41;1738692;81;21524;-77
2021/06/08 07:16:47;;;;;;;5.17;4.67;;;;;;;26.06;44.36;99134.23;1732007;83;21580;-76
2021/06/08 07:19:15;;;;;;;7.83;5.20;;;;;;;25.64;44.83;99130.77;1732426;83;21020;-76
2021/06/08 07:21:43;;;;;;;10.23;4.55;;;;;;;25.54;46.01;99130.44;1732715;83;21055;-77
2021/06/08 07:24:12;;;;;;;8.55;5.25;;;;;;;25.71;45.88;99129.88;1740692;81;20998;-76
2021/06/08 07:26:38;;;;;;;5.58;4.80;;;;;;;25.98;46.25;99131.80;1747747;82;21351;-76
2021/06/08 07:29:09;;;;;;;28.27;5.47;;;;;;;26.27;45.03;99127.55;1747287;82;21002;-77
2021/06/08 07:31:58;;;;;;;6.78;4.80;;;;;;;26.38;44.89;99114.30;1722657;82;21014;-76
2021/06/08 07:34:32;;;;;;;6.22;5.28;;;;;;;26.48;45.05;99127.62;1764585;81;21012;-76
2021/06/08 07:36:58;;;;;;;5.72;5.00;;;;;;;26.31;44.52;99127.39;1780135;81;21040;-76
2021/06/08 07:39:32;;;;;;;6.62;5.00;;;;;;;25.96;44.44;99126.61;1780263;80;21020;-77
2021/06/08 07:42:33;;;;;;;6.30;5.30;;;;;;;25.63;44.96;99130.45;1777045;81;21023;-77
2021/06/08 07:45:04;;;;;;;8.43;5.50;;;;;;;25.22;45.96;99125.03;1768520;78;21031;-76
2021/06/08 07:47:31;;;;;;;8.15;6.15;;;;;;;24.86;46.59;99127.87;1781220;80;21009;-76
2021/06/08 07:49:59;;;;;;;9.43;5.78;;;;;;;24.56;47.45;99133.78;1781040;81;20969;-76
2021/06/08 07:52:25;;;;;;;7.75;5.60;;;;;;;24.37;47.88;99133.67;1781416;80;21027;-76
2021/06/08 07:54:52;;;;;;;10.00;6.45;;;;;;;24.20;48.85;99135.17;1779068;80;20949;-78
2021/06/08 07:57:19;;;;;;;6.20;5.53;;;;;;;23.99;49.47;99134.39;1780927;80;21023;-76
2021/06/08 07:59:45;;;;;;;7.25;5.30;;;;;;;23.83;50.22;99138.84;1781485;80;21090;-75
2021/06/08 08:02:12;;;;;;;12.18;5.70;;;;;;;23.85;50.04;99132.19;1781322;80;21025;-75
2021/06/08 08:04:49;;;;;;;7.42;5.25;;;;;;;23.99;49.71;99131.69;1771844;81;21324;-76
2021/06/08 08:07:13;;;;;;;28.75;6.58;;;;;;;24.26;49.44;99130.27;1760199;81;21052;-75
2021/06/08 08:09:39;;;;;;;5.65;4.70;;;;;;;24.56;49.59;99122.98;1771973;80;20970;-78
2021/06/08 08:12:06;;;;;;;4.90;4.40;;;;;;;24.75;48.88;99121.79;1782437;79;21004;-75
2021/06/08 08:14:33;;;;;;;6.40;5.03;;;;;;;24.82;48.20;99126.62;1767712;80;20963;-75
2021/06/08 08:17:00;;;;;;;6.00;5.08;;;;;;;24.86;47.82;99133.28;1766191;81;21021;-75
2021/06/08 08:19:26;;;;;;;6.40;5.15;;;;;;;24.92;47.69;99131.56;1783001;80;21028;-76
2021/06/08 08:21:53;;;;;;;10.32;5.40;;;;;;;25.00;46.92;99128.59;1783097;81;21048;-76
2021/06/08 08:24:19;;;;;;;8.53;5.60;;;;;;;25.05;47.39;99136.06;1779011;81;20973;-75
2021/06/08 08:26:46;;;;;;;8.05;5.67;;;;;;;25.00;47.26;99134.84;1752285;82;21004;-76
2021/06/08 08:29:12;;;;;;;6.05;5.42;;;;;;;24.82;47.25;99138.28;1752831;81;21034;-75
2021/06/08 08:31:39;;;;;;;7.33;5.65;;;;;;;24.49;48.07;99142.44;1765788;81;20957;-75
2021/06/08 08:34:05;;;;;;;8.15;6.12;;;;;;;24.18;49.25;99136.73;1759974;81;20990;-75
2021/06/08 08:36:39;;;;;;;6.25;5.40;;;;;;;24.05;49.85;99134.90;1748718;82;21040;-75
2021/06/08 08:39:20;;;;;;;7.00;5.62;;;;;;;24.01;50.20;99136.34;1748506;82;21104;-76
2021/06/08 08:41:46;;;;;;;13.65;5.58;;;;;;;23.95;50.21;99141.25;1710705;84;21107;-75
2021/06/08 08:44:12;;;;;;;8.60;5.35;;;;;;;23.91;50.21;99141.34;1726191;82;21046;-75
2021/06/08 08:46:39;;;;;;;7.55;5.58;;;;;;;23.96;50.18;99139.37;1702835;84;21021;-77
2021/06/08 08:49:05;;;;;;;8.10;5.72;;;;;;;24.10;50.34;99134.78;1702616;84;21021;-76
2021/06/08 08:51:32;;;;;;;7.10;4.90;;;;;;;24.23;49.68;99130.67;1702977;84;21026;-77
2021/06/08 08:54:00;;;;;;;5.42;4.75;;;;;;;24.26;48.86;99126.22;1723224;82;21478;-76
2021/06/08 08:56:31;;;;;;;5.70;4.58;;;;;;;24.38;48.43;99123.14;1740569;82;21044;-76
2021/06/08 08:59:11;;;;;;;6.15;5.35;;;;;;;24.59;47.89;99123.91;1740402;82;21001;-77
2021/06/08 09:01:40;;;;;;;6.03;5.42;;;;;;;24.74;47.79;99121.48;1740295;82;21014;-77
2021/06/08 09:04:07;;;;;;;8.75;5.17;;;;;;;24.74;47.35;99120.94;1711173;82;21477;-78
2021/06/08 09:06:34;;;;;;;8.60;5.35;;;;;;;24.70;47.16;99115.13;1680492;85;21083;-77
2021/06/08 09:09:02;;;;;;;8.68;5.33;;;;;;;24.65;47.43;99114.95;1714720;83;21064;-77
2021/06/08 09:11:31;;;;;;;6.08;4.92;;;;;;;24.57;47.95;99121.94;1708843;83;21085;-75
2021/06/08 09:13:57;;;;;;;7.65;6.00;;;;;;;24.56;47.92;99113.52;1698663;84;21587;-75
2021/06/08 09:16:23;;;;;;;6.03;5.00;;;;;;;24.59;48.21;99105.50;1700792;84;21615;-76
2021/06/08 09:18:49;;;;;;;8.35;5.10;;;;;;;24.68;47.37;99107.78;1727778;83;21547;-76
2021/06/08 09:21:25;;;;;;;6.47;5.10;;;;;;;24.73;47.02;99104.41;1681591;84;21011;-76
2021/06/08 09:23:52;;;;;;;6.10;5.08;;;;;;;24.73;46.48;99104.94;1684741;84;21041;-75
2021/06/08 09:26:18;;;;;;;5.67;4.85;;;;;;;24.68;46.44;99110.98;1722274;83;21084;-76
2021/06/08 09:28:46;;;;;;;8.00;5.20;;;;;;;24.60;47.17;99109.87;1705686;83;21580;-74
2021/06/08 09:31:20;;;;;;;5.03;4.53;;;;;;;24.58;47.34;99103.33;1721144;83;21016;-76
2021/06/08 09:33:52;;;;;;;5.92;4.97;;;;;;;24.68;48.03;99108.28;1695623;84;20981;-76
2021/06/08 09:36:27;;;;;;;5.17;4.22;;;;;;;24.91;47.80;99099.65;1776883;81;20997;-76
2021/06/08 09:39:00;;;;;;;7.87;4.90;;;;;;;25.18;46.89;99094.06;1776976;81;21041;-76
2021/06/08 09:41:49;;;;;;;7.40;4.97;;;;;;;25.27;46.55;99092.73;1764384;80;21118;-76
2021/06/08 09:44:12;;;;;;;12.37;5.70;;;;;;;25.10;46.90;99099.72;1748775;81;21532;-76
2021/06/08 09:46:56;;;;;;;6.50;4.12;;;;;;;24.65;51.21;99106.02;1754683;81;21056;-77
2021/06/08 09:49:35;;;;;;;7.97;4.65;;;;;;;23.63;50.69;99108.66;1776977;81;21517;-76
2021/06/08 09:52:04;;;;;;;13.38;5.80;;;;;;;22.79;53.61;99106.78;1756198;81;21060;-76
2021/06/08 09:54:51;;;;;;;10.38;4.50;;;;;;;22.53;57.00;99104.33;1765379;81;21052;-76
2021/06/08 09:57:27;;;;;;;6.30;4.30;;;;;;;22.50;57.60;99106.05;1746182;82;21060;-76
2021/06/08 10:00:07;;;;;;;9.35;4.80;;;;;;;22.56;58.07;99100.39;1753460;82;21492;-76
2021/06/08 10:02:49;;;;;;;5.97;5.15;;;;;;;22.61;58.84;99104.66;1751153;82;22071;-76
2021/06/08 10:05:27;;;;;;;7.00;5.17;;;;;;;22.65;60.33;99107.26;1775644;81;21020;-77
2021/06/08 10:08:03;;;;;;;7.83;5.22;;;;;;;22.83;61.75;99114.77;1755375;81;21002;-76
2021/06/08 10:10:41;;;;;;;7.12;5.58;;;;;;;23.10;62.20;99114.00;1721809;82;21486;-76
2021/06/08 10:13:19;;;;;;;7.53;5.80;;;;;;;23.27;61.82;99095.05;1744079;80;21056;-76
2021/06/08 10:16:03;;;;;;;12.85;6.62;;;;;;;23.40;61.78;99097.77;1754894;80;21270;-76
2021/06/08 10:18:45;;;;;;;9.40;6.47;;;;;;;23.56;62.34;99092.98;1776925;80;21049;-76
2021/06/08 10:21:11;;;;;;;9.28;5.80;;;;;;;23.79;62.16;99086.31;1756481;81;21015;-78
2021/06/08 10:23:38;;;;;;;10.30;7.22;;;;;;;23.83;61.92;99087.55;1762894;81;20995;-76
2021/06/08 10:26:12;;;;;;;11.20;6.92;;;;;;;23.89;61.57;99084.01;1748275;82;21583;-76
2021/06/08 10:28:40;;;;;;;11.45;5.75;;;;;;;24.02;62.14;99083.99;1761306;81;21001;-76
2021/06/08 10:31:08;;;;;;;6.60;5.30;;;;;;;24.16;59.96;99078.56;1758024;81;21017;-78
2021/06/08 10:33:35;;;;;;;6.30;5.17;;;;;;;24.10;57.61;99076.71;1748734;82;21016;-78
2021/06/08 10:36:05;;;;;;;7.05;4.67;;;;;;;24.08;57.22;99070.17;1751444;82;21037;-78
2021/06/08 10:38:33;;;;;;;5.87;4.62;;;;;;;24.16;57.50;99070.46;1751523;81;21053;-78
2021/06/08 10:40:59;;;;;;;6.10;4.97;;;;;;;24.24;56.45;99067.50;1734194;82;21045;-78
2021/06/08 10:43:28;;;;;;;5.17;4.67;;;;;;;24.23;54.83;99075.30;1740736;82;21585;-78
2021/06/08 10:45:56;;;;;;;5.40;4.45;;;;;;;24.08;54.92;99077.43;1742460;81;21013;-77
2021/06/08 10:48:29;;;;;;;4.87;4.03;;;;;;;23.79;55.11;99075.52;1766967;81;21091;-77
2021/06/08 10:51:14;;;;;;;6.42;4.95;;;;;;;23.52;55.95;99073.67;1766869;81;21002;-78
2021/06/08 10:53:57;;;;;;;5.15;4.50;;;;;;;23.28;56.67;99079.18;1710593;84;21032;-76
2021/06/08 10:56:31;;;;;;;;;;;;;;;22.99;56.67;99073.63;1767123;81;21447;-76
2021/06/08 10:59:01;;;;;;;;;;;;;;;22.72;57.37;99065.49;1751211;82;20087;-77
2021/06/08 11:01:39;;;;;;;6.30;4.83;;;;;;;22.45;58.11;99057.87;1750982;81;20138;-77
2021/06/08 11:04:09;;;;;;;6.72;4.90;;;;;;;22.26;58.71;99061.59;1772272;80;21042;-77
2021/06/08 11:06:48;;;;;;;6.78;4.78;;;;;;;22.18;59.33;99068.50;1759836;81;21149;-77
2021/06/08 11:09:25;;;;;;;7.25;4.60;;;;;;;22.17;59.22;99078.95;1742571;81;21064;-77
2021/06/08 11:12:09;;;;;;;5.35;4.40;;;;;;;22.17;58.58;99081.13;1745159;81;21005;-77
2021/06/08 11:14:46;;;;;;;5.45;4.78;;;;;;;22.18;58.03;99079.28;1717133;82;21009;-77
2021/06/08 11:17:29;;;;;;;6.22;4.33;;;;;;;22.10;58.09;99087.83;1743867;81;20979;-77
2021/06/08 11:20:18;;;;;;;7.85;4.58;;;;;;;22.07;58.79;99086.89;1765037;81;20970;-78
2021/06/08 11:22:52;;;;;;;6.28;4.30;;;;;;;22.21;58.78;99081.06;1754809;81;21068;-77
2021/06/08 11:25:38;;;;;;;4.35;3.83;;;;;;;22.41;58.99;99075.77;1765135;81;21058;-76
2021/06/08 11:28:09;;;;;;;7.50;4.62;;;;;;;22.61;58.60;99075.02;1751850;80;21521;-75
2021/06/08 11:30:38;;;;;;;6.55;4.47;;;;;;;22.69;58.20;99074.82;1741585;81;21056;-76
2021/06/08 11:33:10;;;;;;;6.58;4.30;;;;;;;22.72;56.29;99073.08;1734132;81;21045;-77
2021/06/08 11:35:42;;;;;;;8.23;4.37;;;;;;;22.67;56.38;99065.28;1725581;83;21089;-77
2021/06/08 11:38:19;;;;;;;5.10;4.17;;;;;;;22.59;57.17;99056.34;1729954;83;21065;-77
2021/06/08 11:40:46;;;;;;;5.22;3.90;;;;;;;22.59;57.49;99048.78;1729008;83;21105;-76
2021/06/08 11:43:18;;;;;;;5.15;3.83;;;;;;;22.62;56.81;99048.36;1738676;82;21087;-76
2021/06/08 11:46:04;;;;;;;6.15;4.87;;;;;;;22.64;56.72;99053.04;1741674;81;21528;-76
2021/06/08 11:48:46;;;;;;;5.50;4.65;;;;;;;22.59;55.82;99052.83;1765558;81;21020;-75
2021/06/08 11:51:24;;;;;;;4.97;4.00;;;;;;;22.55;56.57;99045.66;1772136;80;21013;-76